sensor_id;sensor_type;location;lat;lon;timestamp;pressure;altitude;pressure_sealevel;temperature;humidity
4617;BME280;2321;42.704;23.384;2023-02-24T00:00:03;95483.28;;;8.41;nan
4617;BME280;2321;42.704;23.384;2023-02-24T00:02:57;95475.66;;;8.38;nan
4617;BME280;2321;42.704;23.384;2023-02-24T00:05:24;95470.56;;;8.36;nan
4617;BME280;2321;42.704;23.384;2023-02-24T00:07:51;95466.88;;;8.37;nan
4617;BME280;2321;42.704;23.384;2023-02-24T00:10:20;95475.03;;;8.36;nan
4617;BME280;2321;42.704;23.384;2023-02-24T00:12:47;95470.44;;;8.30;nan
4617;BME280;2321;42.704;23.384;2023-02-24T00:15:14;95467.13;;;8.27;nan
4617;BME280;2321;42.704;23.384;2023-02-24T00:17:41;95468.94;;;8.27;nan
4617;BME280;2321;42.704;23.384;2023-02-24T00:20:10;95467.94;;;8.28;nan
4617;BME280;2321;42.704;23.384;2023-02-24T00:22:37;95466.47;;;8.25;nan
4617;BME280;2321;42.704;23.384;2023-02-24T00:25:05;95467.84;;;8.21;nan
4617;BME280;2321;42.704;23.384;2023-02-24T00:27:34;95460.03;;;8.20;nan
4617;BME280;2321;42.704;23.384;2023-02-24T00:30:01;95469.47;;;8.22;nan
4617;BME280;2321;42.704;23.384;2023-02-24T00:32:29;95462.53;;;8.21;nan
4617;BME280;2321;42.704;23.384;2023-02-24T00:34:56;95452.75;;;8.22;nan
4617;BME280;2321;42.704;23.384;2023-02-24T00:37:23;95457.56;;;8.18;nan
4617;BME280;2321;42.704;23.384;2023-02-24T00:39:50;95464.84;;;8.16;nan
4617;BME280;2321;42.704;23.384;2023-02-24T00:42:22;95463.03;;;8.16;nan
4617;BME280;2321;42.704;23.384;2023-02-24T00:44:50;95455.91;;;8.17;nan
4617;BME280;2321;42.704;23.384;2023-02-24T00:47:18;95456.81;;;8.09;nan
4617;BME280;2321;42.704;23.384;2023-02-24T00:49:46;95454.50;;;8.06;nan
4617;BME280;2321;42.704;23.384;2023-02-24T00:52:16;95451.31;;;8.11;nan
4617;BME280;2321;42.704;23.384;2023-02-24T00:54:45;95446.69;;;8.04;nan
4617;BME280;2321;42.704;23.384;2023-02-24T00:57:13;95446.06;;;8.02;nan
4617;BME280;2321;42.704;23.384;2023-02-24T00:59:42;95438.94;;;8.03;nan
4617;BME280;2321;42.704;23.384;2023-02-24T01:02:13;95436.94;;;8.05;nan
4617;BME280;2321;42.704;23.384;2023-02-24T01:04:40;95437.91;;;8.04;nan
4617;BME280;2321;42.704;23.384;2023-02-24T01:07:09;95431.81;;;8.03;nan
4617;BME280;2321;42.704;23.384;2023-02-24T01:09:39;95437.63;;;7.99;nan
4617;BME280;2321;42.704;23.384;2023-02-24T01:12:07;95434.34;;;7.97;nan
4617;BME280;2321;42.704;23.384;2023-02-24T01:15:03;95431.13;;;8.01;nan
4617;BME280;2321;42.704;23.384;2023-02-24T01:17:36;95431.50;;;7.98;nan
4617;BME280;2321;42.704;23.384;2023-02-24T01:20:04;95432.66;;;7.95;nan
4617;BME280;2321;42.704;23.384;2023-02-24T01:22:39;95430.38;;;7.92;nan
4617;BME280;2321;42.704;23.384;2023-02-24T01:25:06;95423.88;;;7.95;nan
4617;BME280;2321;42.704;23.384;2023-02-24T01:27:33;95426.38;;;7.97;nan
4617;BME280;2321;42.704;23.384;2023-02-24T01:30:01;95418.78;;;7.93;nan
4617;BME280;2321;42.704;23.384;2023-02-24T01:32:29;95422.59;;;7.91;nan
4617;BME280;2321;42.704;23.384;2023-02-24T01:34:58;95418.09;;;7.91;nan
4617;BME280;2321;42.704;23.384;2023-02-24T01:37:25;95412.09;;;7.98;nan
4617;BME280;2321;42.704;23.384;2023-02-24T01:39:53;95413.63;;;7.92;nan
4617;BME280;2321;42.704;23.384;2023-02-24T01:42:20;95406.84;;;7.89;nan
4617;BME280;2321;42.704;23.384;2023-02-24T01:45:11;95414.31;;;7.85;nan
4617;BME280;2321;42.704;23.384;2023-02-24T01:47:39;95415.69;;;7.81;nan
4617;BME280;2321;42.704;23.384;2023-02-24T01:50:09;95416.03;;;7.78;nan
4617;BME280;2321;42.704;23.384;2023-02-24T01:52:41;95408.25;;;7.77;nan
4617;BME280;2321;42.704;23.384;2023-02-24T01:55:13;95411.78;;;7.69;nan
4617;BME280;2321;42.704;23.384;2023-02-24T01:57:45;95405.34;;;7.63;nan
4617;BME280;2321;42.704;23.384;2023-02-24T02:00:14;95406.19;;;7.63;nan
4617;BME280;2321;42.704;23.384;2023-02-24T02:02:58;95408.69;;;7.57;nan
4617;BME280;2321;42.704;23.384;2023-02-24T02:05:30;95410.03;;;7.52;nan
4617;BME280;2321;42.704;23.384;2023-02-24T02:07:57;95412.69;;;7.52;nan
4617;BME280;2321;42.704;23.384;2023-02-24T02:10:25;95408.22;;;7.53;nan
4617;BME280;2321;42.704;23.384;2023-02-24T02:12:54;95405.56;;;7.53;nan
4617;BME280;2321;42.704;23.384;2023-02-24T02:15:21;95403.59;;;7.47;nan
4617;BME280;2321;42.704;23.384;2023-02-24T02:17:56;95407.91;;;7.39;nan
4617;BME280;2321;42.704;23.384;2023-02-24T02:20:55;95405.47;;;7.38;nan
4617;BME280;2321;42.704;23.384;2023-02-24T02:26:57;95411.28;;;7.25;nan
4617;BME280;2321;42.704;23.384;2023-02-24T02:33:03;95405.50;;;7.21;nan
4617;BME280;2321;42.704;23.384;2023-02-24T02:35:36;95398.09;;;7.16;nan
4617;BME280;2321;42.704;23.384;2023-02-24T02:38:11;95409.16;;;7.20;nan
4617;BME280;2321;42.704;23.384;2023-02-24T02:40:42;95406.03;;;7.16;nan
4617;BME280;2321;42.704;23.384;2023-02-24T02:43:16;95404.69;;;7.12;nan
4617;BME280;2321;42.704;23.384;2023-02-24T02:45:54;95398.75;;;7.10;nan
4617;BME280;2321;42.704;23.384;2023-02-24T02:48:27;95395.47;;;7.08;nan
4617;BME280;2321;42.704;23.384;2023-02-24T02:51:03;95387.53;;;7.00;nan
4617;BME280;2321;42.704;23.384;2023-02-24T02:53:37;95398.56;;;7.12;nan
4617;BME280;2321;42.704;23.384;2023-02-24T02:56:09;95397.78;;;7.11;nan
4617;BME280;2321;42.704;23.384;2023-02-24T02:58:41;95393.81;;;7.07;nan
4617;BME280;2321;42.704;23.384;2023-02-24T03:01:13;95401.44;;;7.02;nan
4617;BME280;2321;42.704;23.384;2023-02-24T03:03:45;95393.16;;;6.96;nan
4617;BME280;2321;42.704;23.384;2023-02-24T03:06:18;95391.88;;;6.92;nan
4617;BME280;2321;42.704;23.384;2023-02-24T03:08:50;95388.72;;;6.89;nan
4617;BME280;2321;42.704;23.384;2023-02-24T03:11:22;95395.69;;;6.90;nan
4617;BME280;2321;42.704;23.384;2023-02-24T03:13:51;95389.72;;;6.88;nan
4617;BME280;2321;42.704;23.384;2023-02-24T03:16:20;95390.53;;;6.88;nan
4617;BME280;2321;42.704;23.384;2023-02-24T03:18:52;95396.81;;;6.87;nan
4617;BME280;2321;42.704;23.384;2023-02-24T03:21:27;95392.69;;;6.93;nan
4617;BME280;2321;42.704;23.384;2023-02-24T03:23:58;95393.19;;;6.88;nan
4617;BME280;2321;42.704;23.384;2023-02-24T03:26:29;95399.47;;;6.95;nan
4617;BME280;2321;42.704;23.384;2023-02-24T03:29:04;95407.41;;;6.95;nan
4617;BME280;2321;42.704;23.384;2023-02-24T03:31:37;95408.56;;;6.93;nan
4617;BME280;2321;42.704;23.384;2023-02-24T03:34:07;95418.34;;;6.92;nan
4617;BME280;2321;42.704;23.384;2023-02-24T03:36:37;95399.97;;;6.91;nan
4617;BME280;2321;42.704;23.384;2023-02-24T03:39:04;95402.44;;;6.92;nan
4617;BME280;2321;42.704;23.384;2023-02-24T03:41:39;95390.03;;;6.84;nan
4617;BME280;2321;42.704;23.384;2023-02-24T03:44:10;95393.03;;;6.90;nan
4617;BME280;2321;42.704;23.384;2023-02-24T03:46:37;95399.13;;;6.90;nan
4617;BME280;2321;42.704;23.384;2023-02-24T03:49:08;95384.41;;;6.88;nan
4617;BME280;2321;42.704;23.384;2023-02-24T03:51:43;95395.19;;;6.86;nan
4617;BME280;2321;42.704;23.384;2023-02-24T03:54:37;95382.59;;;6.88;nan
4617;BME280;2321;42.704;23.384;2023-02-24T03:57:16;95397.66;;;6.88;nan
4617;BME280;2321;42.704;23.384;2023-02-24T03:59:55;95389.56;;;6.89;nan
4617;BME280;2321;42.704;23.384;2023-02-24T04:02:42;95390.53;;;6.88;nan
4617;BME280;2321;42.704;23.384;2023-02-24T04:05:14;95386.91;;;6.89;nan
4617;BME280;2321;42.704;23.384;2023-02-24T04:07:53;95390.72;;;6.86;nan
4617;BME280;2321;42.704;23.384;2023-02-24T04:10:25;95387.91;;;6.88;nan
4617;BME280;2321;42.704;23.384;2023-02-24T04:12:59;95388.06;;;6.86;nan
4617;BME280;2321;42.704;23.384;2023-02-24T04:15:31;95395.00;;;6.88;nan
4617;BME280;2321;42.704;23.384;2023-02-24T04:18:04;95388.06;;;6.86;nan
4617;BME280;2321;42.704;23.384;2023-02-24T04:20:36;95387.91;;;6.88;nan
4617;BME280;2321;42.704;23.384;2023-02-24T04:23:07;95384.41;;;6.96;nan
4617;BME280;2321;42.704;23.384;2023-02-24T04:25:37;95390.69;;;6.95;nan
4617;BME280;2321;42.704;23.384;2023-02-24T04:28:06;95383.59;;;6.95;nan
4617;BME280;2321;42.704;23.384;2023-02-24T04:30:37;95385.72;;;7.00;nan
4617;BME280;2321;42.704;23.384;2023-02-24T04:33:06;95384.09;;;6.99;nan
4617;BME280;2321;42.704;23.384;2023-02-24T04:35:34;95383.91;;;7.01;nan
4617;BME280;2321;42.704;23.384;2023-02-24T04:38:06;95382.06;;;7.01;nan
4617;BME280;2321;42.704;23.384;2023-02-24T04:40:33;95378.59;;;7.01;nan
4617;BME280;2321;42.704;23.384;2023-02-24T04:43:01;95372.97;;;7.04;nan
4617;BME280;2321;42.704;23.384;2023-02-24T04:45:29;95367.19;;;7.00;nan
4617;BME280;2321;42.704;23.384;2023-02-24T04:47:58;95364.38;;;7.02;nan
4617;BME280;2321;42.704;23.384;2023-02-24T04:50:29;95359.88;;;7.02;nan
4617;BME280;2321;42.704;23.384;2023-02-24T04:52:58;95366.84;;;7.03;nan
4617;BME280;2321;42.704;23.384;2023-02-24T04:55:28;95367.03;;;7.02;nan
4617;BME280;2321;42.704;23.384;2023-02-24T04:57:58;95366.34;;;7.00;nan
4617;BME280;2321;42.704;23.384;2023-02-24T05:00:25;95362.91;;;6.99;nan
4617;BME280;2321;42.704;23.384;2023-02-24T05:02:58;95359.09;;;7.02;nan
4617;BME280;2321;42.704;23.384;2023-02-24T05:05:26;95358.56;;;7.06;nan
4617;BME280;2321;42.704;23.384;2023-02-24T05:07:55;95363.34;;;7.11;nan
4617;BME280;2321;42.704;23.384;2023-02-24T05:10:29;95357.56;;;7.07;nan
4617;BME280;2321;42.704;23.384;2023-02-24T05:12:57;95358.84;;;7.12;nan
4617;BME280;2321;42.704;23.384;2023-02-24T05:15:27;95359.34;;;7.15;nan
4617;BME280;2321;42.704;23.384;2023-02-24T05:17:57;95370.28;;;7.21;nan
4617;BME280;2321;42.704;23.384;2023-02-24T05:20:24;95360.47;;;7.21;nan
4617;BME280;2321;42.704;23.384;2023-02-24T05:23:09;95369.75;;;7.25;nan
4617;BME280;2321;42.704;23.384;2023-02-24T05:25:37;95370.56;;;7.26;nan
4617;BME280;2321;42.704;23.384;2023-02-24T05:28:08;95371.88;;;7.30;nan
4617;BME280;2321;42.704;23.384;2023-02-24T05:30:35;95376.81;;;7.33;nan
4617;BME280;2321;42.704;23.384;2023-02-24T05:33:02;95383.78;;;7.34;nan
4617;BME280;2321;42.704;23.384;2023-02-24T05:35:35;95370.38;;;7.36;nan
4617;BME280;2321;42.704;23.384;2023-02-24T05:38:02;95375.19;;;7.32;nan
4617;BME280;2321;42.704;23.384;2023-02-24T05:40:32;95375.19;;;7.24;nan
4617;BME280;2321;42.704;23.384;2023-02-24T05:43:01;95368.91;;;7.25;nan
4617;BME280;2321;42.704;23.384;2023-02-24T05:45:29;95375.69;;;7.27;nan
4617;BME280;2321;42.704;23.384;2023-02-24T05:47:57;95380.34;;;7.25;nan
4617;BME280;2321;42.704;23.384;2023-02-24T05:50:24;95390.41;;;7.30;nan
4617;BME280;2321;42.704;23.384;2023-02-24T05:52:51;95371.22;;;7.28;nan
4617;BME280;2321;42.704;23.384;2023-02-24T05:55:20;95372.88;;;7.29;nan
4617;BME280;2321;42.704;23.384;2023-02-24T05:57:48;95382.81;;;7.27;nan
4617;BME280;2321;42.704;23.384;2023-02-24T06:00:20;95376.34;;;7.29;nan
4617;BME280;2321;42.704;23.384;2023-02-24T06:02:50;95379.34;;;7.26;nan
4617;BME280;2321;42.704;23.384;2023-02-24T06:05:18;95380.63;;;7.30;nan
4617;BME280;2321;42.704;23.384;2023-02-24T06:07:57;95364.78;;;7.22;nan
4617;BME280;2321;42.704;23.384;2023-02-24T06:10:31;95392.41;;;7.28;nan
4617;BME280;2321;42.704;23.384;2023-02-24T06:13:00;95387.13;;;7.28;nan
4617;BME280;2321;42.704;23.384;2023-02-24T06:15:28;95393.56;;;7.25;nan
4617;BME280;2321;42.704;23.384;2023-02-24T06:17:56;95393.56;;;7.25;nan
4617;BME280;2321;42.704;23.384;2023-02-24T06:20:26;95402.34;;;7.26;nan
4617;BME280;2321;42.704;23.384;2023-02-24T06:22:53;95406.19;;;7.23;nan
4617;BME280;2321;42.704;23.384;2023-02-24T06:25:23;95405.00;;;7.26;nan
4617;BME280;2321;42.704;23.384;2023-02-24T06:27:51;95405.66;;;7.28;nan
4617;BME280;2321;42.704;23.384;2023-02-24T06:30:20;95395.88;;;7.28;nan
4617;BME280;2321;42.704;23.384;2023-02-24T06:32:49;95398.69;;;7.27;nan
4617;BME280;2321;42.704;23.384;2023-02-24T06:35:16;95395.69;;;7.30;nan
4617;BME280;2321;42.704;23.384;2023-02-24T06:37:44;95397.38;;;7.31;nan
4617;BME280;2321;42.704;23.384;2023-02-24T06:40:11;95395.53;;;7.32;nan
4617;BME280;2321;42.704;23.384;2023-02-24T06:42:43;95395.34;;;7.33;nan
4617;BME280;2321;42.704;23.384;2023-02-24T06:45:11;95386.13;;;7.29;nan
4617;BME280;2321;42.704;23.384;2023-02-24T06:47:39;95383.78;;;7.34;nan
4617;BME280;2321;42.704;23.384;2023-02-24T06:50:10;95387.41;;;7.33;nan
4617;BME280;2321;42.704;23.384;2023-02-24T06:52:37;95380.63;;;7.39;nan
4617;BME280;2321;42.704;23.384;2023-02-24T06:55:05;95380.97;;;7.36;nan
4617;BME280;2321;42.704;23.384;2023-02-24T06:57:50;95379.91;;;7.45;nan
4617;BME280;2321;42.704;23.384;2023-02-24T07:00:23;95385.06;;;7.47;nan
4617;BME280;2321;42.704;23.384;2023-02-24T07:02:52;95387.34;;;7.50;nan
4617;BME280;2321;42.704;23.384;2023-02-24T07:05:22;95371.47;;;7.50;nan
4617;BME280;2321;42.704;23.384;2023-02-24T07:07:49;95379.06;;;7.53;nan
4617;BME280;2321;42.704;23.384;2023-02-24T07:10:16;95371.81;;;7.47;nan
4617;BME280;2321;42.704;23.384;2023-02-24T07:12:43;95386.38;;;7.43;nan
4617;BME280;2321;42.704;23.384;2023-02-24T07:15:10;95376.28;;;7.46;nan
4617;BME280;2321;42.704;23.384;2023-02-24T07:17:38;95374.75;;;7.52;nan
4617;BME280;2321;42.704;23.384;2023-02-24T07:20:06;95374.88;;;7.59;nan
4617;BME280;2321;42.704;23.384;2023-02-24T07:22:38;95367.72;;;7.68;nan
4617;BME280;2321;42.704;23.384;2023-02-24T07:25:05;95365.00;;;7.76;nan
4617;BME280;2321;42.704;23.384;2023-02-24T07:27:32;95363.59;;;7.89;nan
4617;BME280;2321;42.704;23.384;2023-02-24T07:30:00;95357.78;;;7.93;nan
4617;BME280;2321;42.704;23.384;2023-02-24T07:32:30;95355.44;;;7.99;nan
4617;BME280;2321;42.704;23.384;2023-02-24T07:34:57;95356.75;;;8.03;nan
4617;BME280;2321;42.704;23.384;2023-02-24T07:37:24;95360.22;;;8.03;nan
4617;BME280;2321;42.704;23.384;2023-02-24T07:39:57;95357.38;;;8.05;nan
4617;BME280;2321;42.704;23.384;2023-02-24T07:42:24;95359.03;;;8.06;nan
4617;BME280;2321;42.704;23.384;2023-02-24T07:44:54;95354.38;;;8.08;nan
4617;BME280;2321;42.704;23.384;2023-02-24T07:47:21;95356.03;;;8.09;nan
4617;BME280;2321;42.704;23.384;2023-02-24T07:49:49;95360.38;;;8.02;nan
4617;BME280;2321;42.704;23.384;2023-02-24T07:52:16;95367.69;;;8.00;nan
4617;BME280;2321;42.704;23.384;2023-02-24T07:54:43;95355.44;;;7.99;nan
4617;BME280;2321;42.704;23.384;2023-02-24T07:57:11;95362.75;;;7.97;nan
4617;BME280;2321;42.704;23.384;2023-02-24T07:59:38;95357.09;;;8.00;nan
4617;BME280;2321;42.704;23.384;2023-02-24T08:02:11;95363.03;;;8.02;nan
4617;BME280;2321;42.704;23.384;2023-02-24T08:04:38;95357.38;;;8.05;nan
4617;BME280;2321;42.704;23.384;2023-02-24T08:07:08;95363.88;;;8.02;nan
4617;BME280;2321;42.704;23.384;2023-02-24T08:09:39;95340.63;;;8.04;nan
4617;BME280;2321;42.704;23.384;2023-02-24T08:12:29;95345.66;;;7.99;nan
4617;BME280;2321;42.704;23.384;2023-02-24T08:15:00;95345.81;;;7.98;nan
4617;BME280;2321;42.704;23.384;2023-02-24T08:17:33;95334.41;;;7.97;nan
4617;BME280;2321;42.704;23.384;2023-02-24T08:20:00;95335.88;;;8.00;nan
4617;BME280;2321;42.704;23.384;2023-02-24T08:22:42;95332.41;;;7.99;nan
4617;BME280;2321;42.704;23.384;2023-02-24T08:25:12;95337.97;;;8.04;nan
4617;BME280;2321;42.704;23.384;2023-02-24T08:27:45;95333.78;;;8.10;nan
4617;BME280;2321;42.704;23.384;2023-02-24T08:30:20;95334.09;;;8.15;nan
4617;BME280;2321;42.704;23.384;2023-02-24T08:32:50;95331.09;;;8.19;nan
4617;BME280;2321;42.704;23.384;2023-02-24T08:35:23;95340.16;;;8.24;nan
4617;BME280;2321;42.704;23.384;2023-02-24T08:37:59;95338.44;;;8.32;nan
4617;BME280;2321;42.704;23.384;2023-02-24T08:40:30;95339.25;;;8.32;nan
4617;BME280;2321;42.704;23.384;2023-02-24T08:43:07;95326.75;;;8.41;nan
4617;BME280;2321;42.704;23.384;2023-02-24T08:45:45;95335.44;;;8.50;nan
4617;BME280;2321;42.704;23.384;2023-02-24T08:48:16;95320.19;;;8.52;nan
4617;BME280;2321;42.704;23.384;2023-02-24T08:50:57;95334.13;;;8.69;nan
4617;BME280;2321;42.704;23.384;2023-02-24T08:53:25;95322.78;;;8.76;nan
4617;BME280;2321;42.704;23.384;2023-02-24T08:55:57;95319.78;;;8.79;nan
4617;BME280;2321;42.704;23.384;2023-02-24T08:58:26;95331.75;;;8.90;nan
4617;BME280;2321;42.704;23.384;2023-02-24T09:00:54;95332.84;;;8.96;nan
4617;BME280;2321;42.704;23.384;2023-02-24T09:03:25;95330.75;;;9.06;nan
4617;BME280;2321;42.704;23.384;2023-02-24T09:06:00;95327.16;;;9.14;nan
4617;BME280;2321;42.704;23.384;2023-02-24T09:08:29;95326.25;;;9.22;nan
4617;BME280;2321;42.704;23.384;2023-02-24T09:10:59;95324.97;;;9.18;nan
4617;BME280;2321;42.704;23.384;2023-02-24T09:13:41;95322.03;;;9.28;nan
4617;BME280;2321;42.704;23.384;2023-02-24T09:16:16;95335.66;;;9.40;nan
4617;BME280;2321;42.704;23.384;2023-02-24T09:18:44;95332.50;;;9.51;nan
4617;BME280;2321;42.704;23.384;2023-02-24T09:21:31;95329.00;;;9.66;nan
4617;BME280;2321;42.704;23.384;2023-02-24T09:24:23;95321.84;;;9.66;nan
4617;BME280;2321;42.704;23.384;2023-02-24T09:26:52;95316.75;;;9.87;nan
4617;BME280;2321;42.704;23.384;2023-02-24T09:29:25;95312.97;;;10.03;nan
4617;BME280;2321;42.704;23.384;2023-02-24T09:32:14;95326.41;;;10.17;nan
4617;BME280;2321;42.704;23.384;2023-02-24T09:34:41;95314.00;;;10.24;nan
4617;BME280;2321;42.704;23.384;2023-02-24T09:37:10;95315.25;;;10.28;nan
4617;BME280;2321;42.704;23.384;2023-02-24T09:39:50;95319.31;;;10.24;nan
4617;BME280;2321;42.704;23.384;2023-02-24T09:42:39;95321.41;;;10.29;nan
4617;BME280;2321;42.704;23.384;2023-02-24T09:45:19;95316.97;;;10.36;nan
4617;BME280;2321;42.704;23.384;2023-02-24T09:47:57;95318.97;;;10.56;nan
4617;BME280;2321;42.704;23.384;2023-02-24T09:50:37;95313.09;;;10.67;nan
4617;BME280;2321;42.704;23.384;2023-02-24T09:53:26;95296.59;;;10.79;nan
4617;BME280;2321;42.704;23.384;2023-02-24T09:56:06;95299.72;;;10.89;nan
4617;BME280;2321;42.704;23.384;2023-02-24T09:58:39;95291.06;;;10.81;nan
4617;BME280;2321;42.704;23.384;2023-02-24T10:01:36;95295.41;;;10.88;nan
4617;BME280;2321;42.704;23.384;2023-02-24T10:04:18;95299.28;;;10.86;nan
4617;BME280;2321;42.704;23.384;2023-02-24T10:06:48;95294.81;;;10.93;nan
4617;BME280;2321;42.704;23.384;2023-02-24T10:09:20;95286.44;;;10.96;nan
4617;BME280;2321;42.704;23.384;2023-02-24T10:11:53;95278.88;;;11.00;nan
4617;BME280;2321;42.704;23.384;2023-02-24T10:14:33;95272.09;;;11.04;nan
4617;BME280;2321;42.704;23.384;2023-02-24T10:17:11;95274.63;;;11.13;nan
4617;BME280;2321;42.704;23.384;2023-02-24T10:19:49;95266.00;;;11.10;nan
4617;BME280;2321;42.704;23.384;2023-02-24T10:22:28;95253.91;;;11.15;nan
4617;BME280;2321;42.704;23.384;2023-02-24T10:25:09;95244.50;;;11.12;nan
4617;BME280;2321;42.704;23.384;2023-02-24T10:27:51;95246.31;;;11.11;nan
4617;BME280;2321;42.704;23.384;2023-02-24T10:30:29;95240.59;;;11.15;nan
4617;BME280;2321;42.704;23.384;2023-02-24T10:33:16;95228.28;;;11.14;nan
4617;BME280;2321;42.704;23.384;2023-02-24T10:35:45;95218.81;;;11.04;nan
4617;BME280;2321;42.704;23.384;2023-02-24T10:38:12;95233.63;;;11.07;nan
4617;BME280;2321;42.704;23.384;2023-02-24T10:40:47;95221.50;;;11.04;nan
4617;BME280;2321;42.704;23.384;2023-02-24T10:43:22;95225.69;;;11.34;nan
4617;BME280;2321;42.704;23.384;2023-02-24T10:45:56;95224.28;;;11.52;nan
4617;BME280;2321;42.704;23.384;2023-02-24T10:48:33;95215.09;;;11.68;nan
4617;BME280;2321;42.704;23.384;2023-02-24T10:51:10;95215.50;;;11.85;nan
4617;BME280;2321;42.704;23.384;2023-02-24T10:53:46;95214.47;;;11.93;nan
4617;BME280;2321;42.704;23.384;2023-02-24T10:56:19;95207.09;;;11.95;nan
4617;BME280;2321;42.704;23.384;2023-02-24T10:59:00;95199.28;;;12.01;nan
4617;BME280;2321;42.704;23.384;2023-02-24T11:01:51;95189.44;;;12.01;nan
4617;BME280;2321;42.704;23.384;2023-02-24T11:04:31;95184.94;;;12.02;nan
4617;BME280;2321;42.704;23.384;2023-02-24T11:07:12;95183.50;;;12.19;nan
4617;BME280;2321;42.704;23.384;2023-02-24T11:10:00;95182.66;;;12.33;nan
4617;BME280;2321;42.704;23.384;2023-02-24T11:12:36;95177.47;;;12.51;nan
4617;BME280;2321;42.704;23.384;2023-02-24T11:15:25;95168.78;;;12.70;nan
4617;BME280;2321;42.704;23.384;2023-02-24T11:18:15;95166.09;;;12.77;nan
4617;BME280;2321;42.704;23.384;2023-02-24T11:20:46;95164.63;;;12.88;nan
4617;BME280;2321;42.704;23.384;2023-02-24T11:23:16;95152.44;;;12.99;nan
4617;BME280;2321;42.704;23.384;2023-02-24T11:25:46;95151.56;;;13.05;nan
4617;BME280;2321;42.704;23.384;2023-02-24T11:28:31;95148.22;;;13.16;nan
4617;BME280;2321;42.704;23.384;2023-02-24T11:31:10;95146.84;;;13.39;nan
4617;BME280;2321;42.704;23.384;2023-02-24T11:33:45;95139.38;;;13.48;nan
4617;BME280;2321;42.704;23.384;2023-02-24T11:36:25;95134.34;;;13.66;nan
4617;BME280;2321;42.704;23.384;2023-02-24T11:39:03;95112.75;;;13.86;nan
4617;BME280;2321;42.704;23.384;2023-02-24T11:41:37;95122.13;;;13.96;nan
4617;BME280;2321;42.704;23.384;2023-02-24T11:44:16;95121.69;;;13.99;nan
4617;BME280;2321;42.704;23.384;2023-02-24T11:46:51;95110.84;;;13.93;nan
4617;BME280;2321;42.704;23.384;2023-02-24T11:49:26;95093.75;;;13.94;nan
4617;BME280;2321;42.704;23.384;2023-02-24T11:51:56;95097.78;;;14.04;nan
4617;BME280;2321;42.704;23.384;2023-02-24T11:54:24;95089.91;;;14.09;nan
4617;BME280;2321;42.704;23.384;2023-02-24T11:56:55;95074.28;;;14.06;nan
4617;BME280;2321;42.704;23.384;2023-02-24T11:59:29;95079.94;;;14.16;nan
4617;BME280;2321;42.704;23.384;2023-02-24T12:02:03;95074.88;;;14.27;nan
4617;BME280;2321;42.704;23.384;2023-02-24T12:04:35;95076.13;;;14.43;nan
4617;BME280;2321;42.704;23.384;2023-02-24T12:07:12;95061.22;;;14.47;nan
4617;BME280;2321;42.704;23.384;2023-02-24T12:09:46;95053.84;;;14.62;nan
4617;BME280;2321;42.704;23.384;2023-02-24T12:12:19;95047.22;;;14.64;nan
4617;BME280;2321;42.704;23.384;2023-02-24T12:14:51;95054.69;;;14.62;nan
4617;BME280;2321;42.704;23.384;2023-02-24T12:17:27;95054.69;;;14.62;nan
4617;BME280;2321;42.704;23.384;2023-02-24T12:20:02;95053.03;;;14.61;nan
4617;BME280;2321;42.704;23.384;2023-02-24T12:22:37;95028.50;;;14.45;nan
4617;BME280;2321;42.704;23.384;2023-02-24T12:25:11;95056.91;;;14.65;nan
4617;BME280;2321;42.704;23.384;2023-02-24T12:27:47;95046.19;;;14.65;nan
4617;BME280;2321;42.704;23.384;2023-02-24T12:30:53;95033.84;;;14.64;nan
4617;BME280;2321;42.704;23.384;2023-02-24T12:33:34;95032.13;;;14.51;nan
4617;BME280;2321;42.704;23.384;2023-02-24T12:36:13;95027.97;;;14.55;nan
4617;BME280;2321;42.704;23.384;2023-02-24T12:38:53;95022.03;;;14.53;nan
4617;BME280;2321;42.704;23.384;2023-02-24T12:41:43;95025.41;;;14.60;nan
4617;BME280;2321;42.704;23.384;2023-02-24T12:44:23;95027.06;;;14.62;nan
4617;BME280;2321;42.704;23.384;2023-02-24T12:46:57;95025.63;;;14.47;nan
4617;BME280;2321;42.704;23.384;2023-02-24T12:49:46;95030.91;;;14.35;nan
4617;BME280;2321;42.704;23.384;2023-02-24T12:52:23;95026.91;;;14.25;nan
4617;BME280;2321;42.704;23.384;2023-02-24T12:54:59;95027.06;;;14.12;nan
4617;BME280;2321;42.704;23.384;2023-02-24T12:57:32;95033.00;;;14.14;nan
4617;BME280;2321;42.704;23.384;2023-02-24T13:00:12;95037.47;;;14.01;nan
4617;BME280;2321;42.704;23.384;2023-02-24T13:02:48;95034.56;;;13.84;nan
4617;BME280;2321;42.704;23.384;2023-02-24T13:05:21;95027.34;;;13.66;nan
4617;BME280;2321;42.704;23.384;2023-02-24T13:07:59;95014.78;;;13.66;nan
4617;BME280;2321;42.704;23.384;2023-02-24T13:10:38;95012.53;;;13.63;nan
4617;BME280;2321;42.704;23.384;2023-02-24T13:13:11;95015.16;;;13.44;nan
4617;BME280;2321;42.704;23.384;2023-02-24T13:15:49;95001.97;;;13.24;nan
4617;BME280;2321;42.704;23.384;2023-02-24T13:18:23;94996.69;;;13.17;nan
4617;BME280;2321;42.704;23.384;2023-02-24T13:21:02;94998.38;;;13.11;nan
4617;BME280;2321;42.704;23.384;2023-02-24T13:23:29;94996.97;;;13.09;nan
4617;BME280;2321;42.704;23.384;2023-02-24T13:25:58;94997.56;;;13.11;nan
4617;BME280;2321;42.704;23.384;2023-02-24T13:28:26;94983.22;;;13.05;nan
4617;BME280;2321;42.704;23.384;2023-02-24T13:30:59;94982.22;;;12.99;nan
4617;BME280;2321;42.704;23.384;2023-02-24T13:33:30;94978.78;;;12.92;nan
4617;BME280;2321;42.704;23.384;2023-02-24T13:36:13;94973.81;;;12.95;nan
4617;BME280;2321;42.704;23.384;2023-02-24T13:38:43;94971.97;;;12.96;nan
4617;BME280;2321;42.704;23.384;2023-02-24T13:41:37;94980.25;;;12.88;nan
4617;BME280;2321;42.704;23.384;2023-02-24T13:44:22;94975.13;;;12.86;nan
4617;BME280;2321;42.704;23.384;2023-02-24T13:49:42;94977.75;;;12.93;nan
4617;BME280;2321;42.704;23.384;2023-02-24T13:52:22;94982.06;;;12.94;nan
4617;BME280;2321;42.704;23.384;2023-02-24T13:55:18;94985.19;;;12.91;nan
4617;BME280;2321;42.704;23.384;2023-02-24T13:57:59;94977.41;;;12.82;nan
4617;BME280;2321;42.704;23.384;2023-02-24T14:00:39;94979.72;;;12.79;nan
4617;BME280;2321;42.704;23.384;2023-02-24T14:03:18;94975.34;;;12.84;nan
4617;BME280;2321;42.704;23.384;2023-02-24T14:05:46;94981.06;;;12.88;nan
4617;BME280;2321;42.704;23.384;2023-02-24T14:08:19;94979.47;;;12.80;nan
4617;BME280;2321;42.704;23.384;2023-02-24T14:10:51;94972.22;;;12.62;nan
4617;BME280;2321;42.704;23.384;2023-02-24T14:13:24;94972.75;;;12.71;nan
4617;BME280;2321;42.704;23.384;2023-02-24T14:15:54;94960.66;;;12.68;nan
4617;BME280;2321;42.704;23.384;2023-02-24T14:18:24;94964.75;;;12.71;nan
4617;BME280;2321;42.704;23.384;2023-02-24T14:20:52;94964.38;;;12.67;nan